sensor_id;sensor_type;location;lat;lon;timestamp;pressure;altitude;pressure_sealevel;temperature
6498;BMP280;3282;48.358;10.958;2022-11-20T00:01:31;95629.03;;;7.25
6498;BMP280;3282;48.358;10.958;2022-11-20T00:03:59;95633.25;;;7.26
6498;BMP280;3282;48.358;10.958;2022-11-20T00:06:27;95634.63;;;7.19
6498;BMP280;3282;48.358;10.958;2022-11-20T00:08:55;95638.66;;;7.13
6498;BMP280;3282;48.358;10.958;2022-11-20T00:11:24;95626.66;;;7.03
6498;BMP280;3282;48.358;10.958;2022-11-20T00:13:53;95645.38;;;7.07
6498;BMP280;3282;48.358;10.958;2022-11-20T00:16:22;95643.41;;;7.04
6498;BMP280;3282;48.358;10.958;2022-11-20T00:18:49;95644.94;;;7.05
6498;BMP280;3282;48.358;10.958;2022-11-20T00:21:18;95636.47;;;6.99
6498;BMP280;3282;48.358;10.958;2022-11-20T00:23:48;95649.81;;;7.03
6498;BMP280;3282;48.358;10.958;2022-11-20T00:26:16;95647.16;;;7.03
6498;BMP280;3282;48.358;10.958;2022-11-20T00:28:48;95654.44;;;7.06
6498;BMP280;3282;48.358;10.958;2022-11-20T00:31:15;95656.34;;;7.05
6498;BMP280;3282;48.358;10.958;2022-11-20T00:33:43;95658.25;;;7.05
6498;BMP280;3282;48.358;10.958;2022-11-20T00:36:15;95655.91;;;7.03
6498;BMP280;3282;48.358;10.958;2022-11-20T00:38:42;95657.44;;;7.04
6498;BMP280;3282;48.358;10.958;2022-11-20T00:41:11;95630.53;;;6.90
6498;BMP280;3282;48.358;10.958;2022-11-20T00:43:38;95662.84;;;7.08
6498;BMP280;3282;48.358;10.958;2022-11-20T00:46:16;95646.41;;;7.02
6498;BMP280;3282;48.358;10.958;2022-11-20T00:48:43;95657.09;;;7.06
6498;BMP280;3282;48.358;10.958;2022-11-20T00:51:15;95659.00;;;7.05
6498;BMP280;3282;48.358;10.958;2022-11-20T00:53:42;95659.38;;;7.04
6498;BMP280;3282;48.358;10.958;2022-11-20T00:56:11;95657.81;;;7.03
6498;BMP280;3282;48.358;10.958;2022-11-20T00:58:40;95654.78;;;7.04
6498;BMP280;3282;48.358;10.958;2022-11-20T01:01:09;95666.16;;;7.01
6498;BMP280;3282;48.358;10.958;2022-11-20T01:03:39;95651.81;;;6.90
6498;BMP280;3282;48.358;10.958;2022-11-20T01:06:11;95655.25;;;6.90
6498;BMP280;3282;48.358;10.958;2022-11-20T01:08:38;95670.44;;;6.90
6498;BMP280;3282;48.358;10.958;2022-11-20T01:11:25;95669.66;;;6.89
6498;BMP280;3282;48.358;10.958;2022-11-20T01:13:53;95670.28;;;6.82
6498;BMP280;3282;48.358;10.958;2022-11-20T01:16:23;95667.69;;;6.86
6498;BMP280;3282;48.358;10.958;2022-11-20T01:18:52;95676.81;;;6.85
6498;BMP280;3282;48.358;10.958;2022-11-20T01:21:22;95660.66;;;6.78
6498;BMP280;3282;48.358;10.958;2022-11-20T01:23:49;95667.28;;;6.84
6498;BMP280;3282;48.358;10.958;2022-11-20T01:26:22;95677.91;;;6.84
6498;BMP280;3282;48.358;10.958;2022-11-20T01:28:50;95665.56;;;6.76
6498;BMP280;3282;48.358;10.958;2022-11-20T01:31:21;95679.47;;;6.85
6498;BMP280;3282;48.358;10.958;2022-11-20T01:33:51;95663.69;;;6.76
6498;BMP280;3282;48.358;10.958;2022-11-20T01:36:20;95669.44;;;6.78
6498;BMP280;3282;48.358;10.958;2022-11-20T01:38:47;95670.53;;;6.77
6498;BMP280;3282;48.358;10.958;2022-11-20T01:41:15;95673.97;;;6.78
6498;BMP280;3282;48.358;10.958;2022-11-20T01:44:01;95676.56;;;6.74
6498;BMP280;3282;48.358;10.958;2022-11-20T01:46:28;95676.19;;;6.76
6498;BMP280;3282;48.358;10.958;2022-11-20T01:49:11;95679.22;;;6.74
6498;BMP280;3282;48.358;10.958;2022-11-20T01:51:49;95680.31;;;6.73
6498;BMP280;3282;48.358;10.958;2022-11-20T01:54:21;95673.56;;;6.60
6498;BMP280;3282;48.358;10.958;2022-11-20T01:56:51;95682.78;;;6.66
6498;BMP280;3282;48.358;10.958;2022-11-20T01:59:20;95688.88;;;6.66
6498;BMP280;3282;48.358;10.958;2022-11-20T02:01:47;95688.88;;;6.66
6498;BMP280;3282;48.358;10.958;2022-11-20T02:04:14;95686.56;;;6.65
6498;BMP280;3282;48.358;10.958;2022-11-20T02:06:56;95686.50;;;6.61
6498;BMP280;3282;48.358;10.958;2022-11-20T02:09:23;95682.97;;;6.57
6498;BMP280;3282;48.358;10.958;2022-11-20T02:11:51;95686.50;;;6.61
6498;BMP280;3282;48.358;10.958;2022-11-20T02:14:18;95684.19;;;6.60
6498;BMP280;3282;48.358;10.958;2022-11-20T02:16:47;95681.88;;;6.58
6498;BMP280;3282;48.358;10.958;2022-11-20T02:19:24;95679.53;;;6.56
6498;BMP280;3282;48.358;10.958;2022-11-20T02:22:02;95683.47;;;6.63
6498;BMP280;3282;48.358;10.958;2022-11-20T02:24:32;95664.19;;;6.50
6498;BMP280;3282;48.358;10.958;2022-11-20T02:27:04;95665.31;;;6.49
6498;BMP280;3282;48.358;10.958;2022-11-20T02:29:36;95694.53;;;6.65
6498;BMP280;3282;48.358;10.958;2022-11-20T02:32:03;95676.56;;;6.58
6498;BMP280;3282;48.358;10.958;2022-11-20T02:34:30;95677.66;;;6.57
6498;BMP280;3282;48.358;10.958;2022-11-20T02:36:57;95667.63;;;6.50
6498;BMP280;3282;48.358;10.958;2022-11-20T02:39:27;95670.28;;;6.50
6498;BMP280;3282;48.358;10.958;2022-11-20T02:41:55;95661.69;;;6.41
6498;BMP280;3282;48.358;10.958;2022-11-20T02:44:22;95670.63;;;6.49
6498;BMP280;3282;48.358;10.958;2022-11-20T02:46:48;95668.63;;;6.45
6498;BMP280;3282;48.358;10.958;2022-11-20T02:49:15;95672.06;;;6.46
6498;BMP280;3282;48.358;10.958;2022-11-20T02:51:43;95676.69;;;6.49
6498;BMP280;3282;48.358;10.958;2022-11-20T02:54:10;95661.94;;;6.36
6498;BMP280;3282;48.358;10.958;2022-11-20T02:56:38;95676.50;;;6.42
6498;BMP280;3282;48.358;10.958;2022-11-20T02:59:05;95679.28;;;6.45
6498;BMP280;3282;48.358;10.958;2022-11-20T03:01:32;95673.97;;;6.45
6498;BMP280;3282;48.358;10.958;2022-11-20T03:03:59;95676.28;;;6.47
6498;BMP280;3282;48.358;10.958;2022-11-20T03:06:25;95677.81;;;6.48
6498;BMP280;3282;48.358;10.958;2022-11-20T03:08:52;95678.25;;;6.50
6498;BMP280;3282;48.358;10.958;2022-11-20T03:11:19;95676.03;;;6.52
6498;BMP280;3282;48.358;10.958;2022-11-20T03:13:45;95679.88;;;6.55
6498;BMP280;3282;48.358;10.958;2022-11-20T03:16:14;95681.78;;;6.54
6498;BMP280;3282;48.358;10.958;2022-11-20T03:18:42;95685.63;;;6.57
6498;BMP280;3282;48.358;10.958;2022-11-20T03:21:10;95682.97;;;6.57
6498;BMP280;3282;48.358;10.958;2022-11-20T03:23:37;95674.91;;;6.53
6498;BMP280;3282;48.358;10.958;2022-11-20T03:28:41;95680.06;;;6.62
6498;BMP280;3282;48.358;10.958;2022-11-20T03:31:13;95682.03;;;6.65
6498;BMP280;3282;48.358;10.958;2022-11-20T03:33:41;95677.03;;;6.64
6498;BMP280;3282;48.358;10.958;2022-11-20T03:36:10;95685.00;;;6.64
6498;BMP280;3282;48.358;10.958;2022-11-20T03:38:37;95688.72;;;6.59
6498;BMP280;3282;48.358;10.958;2022-11-20T03:41:07;95672.59;;;6.52
6498;BMP280;3282;48.358;10.958;2022-11-20T03:43:34;95670.72;;;6.52
6498;BMP280;3282;48.358;10.958;2022-11-20T03:46:01;95682.72;;;6.62
6498;BMP280;3282;48.358;10.958;2022-11-20T03:48:28;95637.19;;;6.31
6498;BMP280;3282;48.358;10.958;2022-11-20T03:51:15;95675.88;;;6.61
6498;BMP280;3282;48.358;10.958;2022-11-20T03:53:44;95679.81;;;6.67
6498;BMP280;3282;48.358;10.958;2022-11-20T03:56:13;95678.16;;;6.63
6498;BMP280;3282;48.358;10.958;2022-11-20T03:58:40;95672.09;;;6.62
6498;BMP280;3282;48.358;10.958;2022-11-20T04:01:08;95676.97;;;6.60
6498;BMP280;3282;48.358;10.958;2022-11-20T04:03:36;95674.22;;;6.56
6498;BMP280;3282;48.358;10.958;2022-11-20T04:06:28;95673.47;;;6.56
6498;BMP280;3282;48.358;10.958;2022-11-20T04:08:56;95659.56;;;6.47
6498;BMP280;3282;48.358;10.958;2022-11-20T04:11:28;95673.81;;;6.54
6498;BMP280;3282;48.358;10.958;2022-11-20T04:13:58;95676.78;;;6.53
6498;BMP280;3282;48.358;10.958;2022-11-20T04:16:25;95675.69;;;6.54
6498;BMP280;3282;48.358;10.958;2022-11-20T04:18:53;95676.78;;;6.53
6498;BMP280;3282;48.358;10.958;2022-11-20T04:21:21;95680.22;;;6.53
6498;BMP280;3282;48.358;10.958;2022-11-20T04:23:48;95673.28;;;6.49
6498;BMP280;3282;48.358;10.958;2022-11-20T04:26:14;95631.59;;;6.20
6498;BMP280;3282;48.358;10.958;2022-11-20T04:28:41;95659.38;;;6.39
6498;BMP280;3282;48.358;10.958;2022-11-20T04:31:16;95671.81;;;6.51
6498;BMP280;3282;48.358;10.958;2022-11-20T04:33:43;95665.88;;;6.42
6498;BMP280;3282;48.358;10.958;2022-11-20T04:36:21;95671.47;;;6.53
6498;BMP280;3282;48.358;10.958;2022-11-20T04:38:53;95658.78;;;6.46
6498;BMP280;3282;48.358;10.958;2022-11-20T04:41:28;95658.44;;;6.48
6498;BMP280;3282;48.358;10.958;2022-11-20T04:43:56;95665.50;;;6.56
6498;BMP280;3282;48.358;10.958;2022-11-20T04:46:27;95673.28;;;6.49
6498;BMP280;3282;48.358;10.958;2022-11-20T04:48:54;95667.28;;;6.52
6498;BMP280;3282;48.358;10.958;2022-11-20T04:51:21;95666.94;;;6.53
6498;BMP280;3282;48.358;10.958;2022-11-20T04:53:47;95663.19;;;6.54
6498;BMP280;3282;48.358;10.958;2022-11-20T04:56:15;95667.38;;;6.55
6498;BMP280;3282;48.358;10.958;2022-11-20T04:58:42;95665.06;;;6.54
6498;BMP280;3282;48.358;10.958;2022-11-20T05:01:16;95645.84;;;6.44
6498;BMP280;3282;48.358;10.958;2022-11-20T05:03:44;95662.66;;;6.49
6498;BMP280;3282;48.358;10.958;2022-11-20T05:06:13;95649.63;;;6.43
6498;BMP280;3282;48.358;10.958;2022-11-20T05:08:40;95662.66;;;6.49
6498;BMP280;3282;48.358;10.958;2022-11-20T05:11:13;95659.47;;;6.43
6498;BMP280;3282;48.358;10.958;2022-11-20T05:13:40;95665.56;;;6.43
6498;BMP280;3282;48.358;10.958;2022-11-20T05:16:12;95668.53;;;6.42
6498;BMP280;3282;48.358;10.958;2022-11-20T05:18:39;95623.69;;;6.08
6498;BMP280;3282;48.358;10.958;2022-11-20T05:21:08;95667.69;;;6.38
6498;BMP280;3282;48.358;10.958;2022-11-20T05:23:35;95653.91;;;6.32
6498;BMP280;3282;48.358;10.958;2022-11-20T05:26:02;95660.06;;;6.36
6498;BMP280;3282;48.358;10.958;2022-11-20T05:28:30;95654.59;;;6.29
6498;BMP280;3282;48.358;10.958;2022-11-20T05:31:14;95662.28;;;6.34
6498;BMP280;3282;48.358;10.958;2022-11-20T05:33:42;95662.97;;;6.31
6498;BMP280;3282;48.358;10.958;2022-11-20T05:36:10;95661.44;;;6.30
6498;BMP280;3282;48.358;10.958;2022-11-20T05:38:37;95653.47;;;6.30
6498;BMP280;3282;48.358;10.958;2022-11-20T05:41:10;95660.75;;;6.33
6498;BMP280;3282;48.358;10.958;2022-11-20T05:43:38;95662.28;;;6.34
6498;BMP280;3282;48.358;10.958;2022-11-20T05:46:06;95661.09;;;6.31
6498;BMP280;3282;48.358;10.958;2022-11-20T05:48:34;95663.03;;;6.35
6498;BMP280;3282;48.358;10.958;2022-11-20T05:51:02;95664.59;;;6.36
6498;BMP280;3282;48.358;10.958;2022-11-20T05:53:29;95670.69;;;6.36
6498;BMP280;3282;48.358;10.958;2022-11-20T05:55:57;95676.00;;;6.36
6498;BMP280;3282;48.358;10.958;2022-11-20T05:58:25;95671.88;;;6.39
6498;BMP280;3282;48.358;10.958;2022-11-20T06:00:52;95680.28;;;6.41
6498;BMP280;3282;48.358;10.958;2022-11-20T06:03:19;95679.63;;;6.44
6498;BMP280;3282;48.358;10.958;2022-11-20T06:05:46;95676.19;;;6.43
6498;BMP280;3282;48.358;10.958;2022-11-20T06:08:12;95680.72;;;6.43
6498;BMP280;3282;48.358;10.958;2022-11-20T06:10:39;95648.41;;;6.25
6498;BMP280;3282;48.358;10.958;2022-11-20T06:13:05;95687.59;;;6.44
6498;BMP280;3282;48.358;10.958;2022-11-20T06:15:32;95686.16;;;6.47
6498;BMP280;3282;48.358;10.958;2022-11-20T06:17:58;95672.31;;;6.41
6498;BMP280;3282;48.358;10.958;2022-11-20T06:20:25;95674.63;;;6.42
6498;BMP280;3282;48.358;10.958;2022-11-20T06:22:51;95690.41;;;6.51
6498;BMP280;3282;48.358;10.958;2022-11-20T06:25:18;95682.00;;;6.49
6498;BMP280;3282;48.358;10.958;2022-11-20T06:27:44;95691.97;;;6.52
6498;BMP280;3282;48.358;10.958;2022-11-20T06:30:11;95690.41;;;6.51
6498;BMP280;3282;48.358;10.958;2022-11-20T06:32:38;95698.47;;;6.55
6498;BMP280;3282;48.358;10.958;2022-11-20T06:35:05;95698.13;;;6.56
6498;BMP280;3282;48.358;10.958;2022-11-20T06:37:31;95700.13;;;6.60
6498;BMP280;3282;48.358;10.958;2022-11-20T06:39:58;95684.16;;;6.43
6498;BMP280;3282;48.358;10.958;2022-11-20T06:42:24;95707.66;;;6.57
6498;BMP280;3282;48.358;10.958;2022-11-20T06:44:51;95708.53;;;6.62
6498;BMP280;3282;48.358;10.958;2022-11-20T06:47:17;95701.91;;;6.55
6498;BMP280;3282;48.358;10.958;2022-11-20T06:49:44;95691.88;;;6.49
6498;BMP280;3282;48.358;10.958;2022-11-20T06:52:10;95705.34;;;6.56
6498;BMP280;3282;48.358;10.958;2022-11-20T06:54:37;95719.91;;;6.62
6498;BMP280;3282;48.358;10.958;2022-11-20T06:57:03;95703.03;;;6.54
6498;BMP280;3282;48.358;10.958;2022-11-20T06:59:30;95715.34;;;6.63
6498;BMP280;3282;48.358;10.958;2022-11-20T07:01:56;95676.25;;;6.31
6498;BMP280;3282;48.358;10.958;2022-11-20T07:04:23;95716.13;;;6.63
6498;BMP280;3282;48.358;10.958;2022-11-20T07:06:50;95713.31;;;6.56
6498;BMP280;3282;48.358;10.958;2022-11-20T07:09:16;95717.25;;;6.62
6498;BMP280;3282;48.358;10.958;2022-11-20T07:11:43;95717.03;;;6.67
6498;BMP280;3282;48.358;10.958;2022-11-20T07:14:09;95714.00;;;6.69
6498;BMP280;3282;48.358;10.958;2022-11-20T07:16:36;95677.72;;;6.44
6498;BMP280;3282;48.358;10.958;2022-11-20T07:19:03;95704.03;;;6.66
6498;BMP280;3282;48.358;10.958;2022-11-20T07:21:29;95713.25;;;6.68
6498;BMP280;3282;48.358;10.958;2022-11-20T07:23:56;95724.75;;;6.73
6498;BMP280;3282;48.358;10.958;2022-11-20T07:26:23;95722.53;;;6.75
6498;BMP280;3282;48.358;10.958;2022-11-20T07:28:49;95728.50;;;6.72
6498;BMP280;3282;48.358;10.958;2022-11-20T07:31:16;95730.06;;;6.73
6498;BMP280;3282;48.358;10.958;2022-11-20T07:33:45;95725.19;;;6.75
6498;BMP280;3282;48.358;10.958;2022-11-20T07:36:12;95720.25;;;6.77
6498;BMP280;3282;48.358;10.958;2022-11-20T07:38:38;95721.81;;;6.78
6498;BMP280;3282;48.358;10.958;2022-11-20T07:41:05;95719.34;;;6.85
6498;BMP280;3282;48.358;10.958;2022-11-20T07:43:31;95732.88;;;6.96
6498;BMP280;3282;48.358;10.958;2022-11-20T07:46:05;95733.66;;;6.97
6498;BMP280;3282;48.358;10.958;2022-11-20T07:48:31;95723.69;;;6.93
6498;BMP280;3282;48.358;10.958;2022-11-20T07:50:58;95718.72;;;6.92
6498;BMP280;3282;48.358;10.958;2022-11-20T07:53:25;95721.81;;;6.94
6498;BMP280;3282;48.358;10.958;2022-11-20T07:55:51;95681.97;;;6.62
6498;BMP280;3282;48.358;10.958;2022-11-20T07:58:19;95716.06;;;6.92
6498;BMP280;3282;48.358;10.958;2022-11-20T08:00:46;95720.47;;;7.00
6498;BMP280;3282;48.358;10.958;2022-11-20T08:03:13;95734.56;;;7.04
6498;BMP280;3282;48.358;10.958;2022-11-20T08:05:40;95727.38;;;7.21
6498;BMP280;3282;48.358;10.958;2022-11-20T08:08:06;95734.81;;;7.31
6498;BMP280;3282;48.358;10.958;2022-11-20T08:10:34;95734.75;;;7.28
6498;BMP280;3282;48.358;10.958;2022-11-20T08:13:00;95725.75;;;7.16
6498;BMP280;3282;48.358;10.958;2022-11-20T08:15:49;95716.06;;;7.08
6498;BMP280;3282;48.358;10.958;2022-11-20T08:18:17;95718.38;;;7.10
6498;BMP280;3282;48.358;10.958;2022-11-20T08:21:05;95730.13;;;7.25
6498;BMP280;3282;48.358;10.958;2022-11-20T08:23:31;95736.28;;;7.29
6498;BMP280;3282;48.358;10.958;2022-11-20T08:25:58;95736.00;;;7.34
6498;BMP280;3282;48.358;10.958;2022-11-20T08:28:25;95727.69;;;7.36
6498;BMP280;3282;48.358;10.958;2022-11-20T08:45:12;95740.88;;;7.48
6498;BMP280;3282;48.358;10.958;2022-11-20T08:49:17;95637.72;;;6.86
6498;BMP280;3282;48.358;10.958;2022-11-20T09:06:06;95720.47;;;7.72
6498;BMP280;3282;48.358;10.958;2022-11-20T09:09:18;95641.91;;;7.23
6498;BMP280;3282;48.358;10.958;2022-11-20T09:16:21;95604.22;;;7.01
6498;BMP280;3282;48.358;10.958;2022-11-20T09:18:49;95707.06;;;7.68
6498;BMP280;3282;48.358;10.958;2022-11-20T09:21:36;95680.94;;;7.54
6498;BMP280;3282;48.358;10.958;2022-11-20T09:28:26;95659.72;;;7.58
6498;BMP280;3282;48.358;10.958;2022-11-20T09:31:27;95731.47;;;8.10
6498;BMP280;3282;48.358;10.958;2022-11-20T09:34:28;95729.84;;;8.05
6498;BMP280;3282;48.358;10.958;2022-11-20T09:37:38;95730.66;;;8.06
6498;BMP280;3282;48.358;10.958;2022-11-20T09:40:39;95731.47;;;8.10
6498;BMP280;3282;48.358;10.958;2022-11-20T09:54:38;95672.38;;;8.04
6498;BMP280;3282;48.358;10.958;2022-11-20T09:57:30;95577.06;;;7.71
6498;BMP280;3282;48.358;10.958;2022-11-20T10:00:46;95640.56;;;8.35
6498;BMP280;3282;48.358;10.958;2022-11-20T10:03:25;95646.13;;;8.50
6498;BMP280;3282;48.358;10.958;2022-11-20T10:05:58;95651.69;;;8.64
6498;BMP280;3282;48.358;10.958;2022-11-20T10:08:38;95583.53;;;8.16
6498;BMP280;3282;48.358;10.958;2022-11-20T10:11:34;95704.66;;;8.93
6498;BMP280;3282;48.358;10.958;2022-11-20T10:20:48;95705.13;;;8.72
6498;BMP280;3282;48.358;10.958;2022-11-20T10:23:31;95706.66;;;8.73
6498;BMP280;3282;48.358;10.958;2022-11-20T10:26:04;95652.75;;;8.36
6498;BMP280;3282;48.358;10.958;2022-11-20T10:31:36;95714.41;;;8.81
6498;BMP280;3282;48.358;10.958;2022-11-20T10:36:50;95707.34;;;8.69
6498;BMP280;3282;48.358;10.958;2022-11-20T10:39:26;95726.44;;;8.72
6498;BMP280;3282;48.358;10.958;2022-11-20T10:41:55;95711.50;;;8.67
6498;BMP280;3282;48.358;10.958;2022-11-20T10:44:31;95709.13;;;8.62
6498;BMP280;3282;48.358;10.958;2022-11-20T10:47:22;95709.25;;;8.69
6498;BMP280;3282;48.358;10.958;2022-11-20T10:49:52;95716.72;;;8.83
6498;BMP280;3282;48.358;10.958;2022-11-20T10:52:35;95710.53;;;8.75
6498;BMP280;3282;48.358;10.958;2022-11-20T11:01:26;95711.03;;;8.85
6498;BMP280;3282;48.358;10.958;2022-11-20T11:03:54;95708.00;;;8.86
6498;BMP280;3282;48.358;10.958;2022-11-20T11:06:40;95705.31;;;8.86
6498;BMP280;3282;48.358;10.958;2022-11-20T11:09:13;95699.94;;;8.83
6498;BMP280;3282;48.358;10.958;2022-11-20T11:11:41;95701.31;;;8.73
6498;BMP280;3282;48.358;10.958;2022-11-20T11:14:15;95704.28;;;8.67
6498;BMP280;3282;48.358;10.958;2022-11-20T11:19:16;95710.63;;;8.59
6498;BMP280;3282;48.358;10.958;2022-11-20T11:21:54;95702.63;;;8.59
6498;BMP280;3282;48.358;10.958;2022-11-20T11:24:24;95681.03;;;8.41
6498;BMP280;3282;48.358;10.958;2022-11-20T11:27:14;95692.81;;;8.43
6498;BMP280;3282;48.358;10.958;2022-11-20T11:29:45;95695.50;;;8.43
6498;BMP280;3282;48.358;10.958;2022-11-20T11:32:19;95640.81;;;8.06
6498;BMP280;3282;48.358;10.958;2022-11-20T11:35:04;95686.59;;;8.36
6498;BMP280;3282;48.358;10.958;2022-11-20T11:37:36;95629.06;;;8.08
6498;BMP280;3282;48.358;10.958;2022-11-20T11:40:04;95688.84;;;8.53
6498;BMP280;3282;48.358;10.958;2022-11-20T11:42:58;95687.44;;;8.63
6498;BMP280;3282;48.358;10.958;2022-11-20T11:45:26;95667.25;;;8.62
6498;BMP280;3282;48.358;10.958;2022-11-20T11:47:55;95649.31;;;8.59
6498;BMP280;3282;48.358;10.958;2022-11-20T11:50:24;95676.78;;;8.90
6498;BMP280;3282;48.358;10.958;2022-11-20T11:55:30;95658.03;;;8.83
6498;BMP280;3282;48.358;10.958;2022-11-20T11:58:17;95677.13;;;8.85
6498;BMP280;3282;48.358;10.958;2022-11-20T12:00:58;95660.91;;;8.71
6498;BMP280;3282;48.358;10.958;2022-11-20T12:03:34;95661.06;;;8.81
6498;BMP280;3282;48.358;10.958;2022-11-20T12:06:11;95652.47;;;8.68
6498;BMP280;3282;48.358;10.958;2022-11-20T12:11:38;95671.63;;;8.74
6498;BMP280;3282;48.358;10.958;2022-11-20T12:14:34;95672.28;;;8.67
6498;BMP280;3282;48.358;10.958;2022-11-20T12:17:02;95669.56;;;8.64
6498;BMP280;3282;48.358;10.958;2022-11-20T12:19:30;95664.16;;;8.60
6498;BMP280;3282;48.358;10.958;2022-11-20T12:25:21;95671.28;;;8.52
6498;BMP280;3282;48.358;10.958;2022-11-20T12:28:07;95654.38;;;8.41
6498;BMP280;3282;48.358;10.958;2022-11-20T12:33:35;95656.69;;;8.42
6498;BMP280;3282;48.358;10.958;2022-11-20T12:39:05;95665.78;;;8.41
6498;BMP280;3282;48.358;10.958;2022-11-20T13:06:57;95650.25;;;8.24
6498;BMP280;3282;48.358;10.958;2022-11-20T13:09:25;95662.94;;;8.30
6498;BMP280;3282;48.358;10.958;2022-11-20T13:12:08;95655.72;;;8.31
6498;BMP280;3282;48.358;10.958;2022-11-20T13:14:39;95658.38;;;8.31
6498;BMP280;3282;48.358;10.958;2022-11-20T13:19:39;95658.66;;;8.26
6498;BMP280;3282;48.358;10.958;2022-11-20T13:22:08;95652.22;;;8.27
6498;BMP280;3282;48.358;10.958;2022-11-20T13:24:35;95647.72;;;8.31
6498;BMP280;3282;48.358;10.958;2022-11-20T13:27:17;95646.59;;;8.32
6498;BMP280;3282;48.358;10.958;2022-11-20T13:30:24;95653.00;;;8.27
6498;BMP280;3282;48.358;10.958;2022-11-20T13:35:31;95646.06;;;8.23
6498;BMP280;3282;48.358;10.958;2022-11-20T13:38:09;95638.69;;;8.16
6498;BMP280;3282;48.358;10.958;2022-11-20T13:40:39;95629.50;;;8.10
6498;BMP280;3282;48.358;10.958;2022-11-20T13:48:24;95637.88;;;8.12
6498;BMP280;3282;48.358;10.958;2022-11-20T13:51:22;95639.41;;;8.13
6498;BMP280;3282;48.358;10.958;2022-11-20T13:56:54;95642.03;;;8.09
6498;BMP280;3282;48.358;10.958;2022-11-20T14:01:57;95632.38;;;8.01
6498;BMP280;3282;48.358;10.958;2022-11-20T14:04:31;95601.28;;;7.85
6498;BMP280;3282;48.358;10.958;2022-11-20T14:06:59;95614.00;;;7.96
6498;BMP280;3282;48.358;10.958;2022-11-20T14:09:31;95640.91;;;8.10
6498;BMP280;3282;48.358;10.958;2022-11-20T14:11:58;95637.88;;;8.12
6498;BMP280;3282;48.358;10.958;2022-11-20T14:14:27;95606.72;;;7.92
6498;BMP280;3282;48.358;10.958;2022-11-20T14:17:23;95637.41;;;8.06
6498;BMP280;3282;48.358;10.958;2022-11-20T14:19:52;95636.28;;;8.07
6498;BMP280;3282;48.358;10.958;2022-11-20T14:22:23;95621.66;;;7.97
6498;BMP280;3282;48.358;10.958;2022-11-20T14:27:34;95635.50;;;8.06
6498;BMP280;3282;48.358;10.958;2022-11-20T14:30:03;95647.06;;;8.14
6498;BMP280;3282;48.358;10.958;2022-11-20T14:32:31;95639.41;;;8.13
6498;BMP280;3282;48.358;10.958;2022-11-20T14:35:03;95639.38;;;8.09
6498;BMP280;3282;48.358;10.958;2022-11-20T14:37:37;95630.88;;;8.03
6498;BMP280;3282;48.358;10.958;2022-11-20T14:40:33;95630.47;;;8.01
6498;BMP280;3282;48.358;10.958;2022-11-20T14:43:16;95636.50;;;7.98
6498;BMP280;3282;48.358;10.958;2022-11-20T14:45:55;95619.34;;;7.96
6498;BMP280;3282;48.358;10.958;2022-11-20T14:48:35;95614.72;;;7.92
6498;BMP280;3282;48.358;10.958;2022-11-20T14:51:04;95629.69;;;8.01
6498;BMP280;3282;48.358;10.958;2022-11-20T14:53:30;95629.31;;;7.99
6498;BMP280;3282;48.358;10.958;2022-11-20T14:55:59;95613.91;;;8.12
6498;BMP280;3282;48.358;10.958;2022-11-20T14:58:31;95629.63;;;8.67
6498;BMP280;3282;48.358;10.958;2022-11-20T15:01:02;95638.91;;;8.77
6498;BMP280;3282;48.358;10.958;2022-11-20T15:03:40;95628.28;;;9.08
6498;BMP280;3282;48.358;10.958;2022-11-20T15:06:10;95618.84;;;9.18
6498;BMP280;3282;48.358;10.958;2022-11-20T15:08:37;95626.34;;;9.09
6498;BMP280;3282;48.358;10.958;2022-11-20T15:11:16;95618.38;;;8.81
6498;BMP280;3282;48.358;10.958;2022-11-20T15:13:44;95612.53;;;8.72
6498;BMP280;3282;48.358;10.958;2022-11-20T15:16:20;95630.28;;;8.88
6498;BMP280;3282;48.358;10.958;2022-11-20T15:18:47;95632.09;;;8.80
6498;BMP280;3282;48.358;10.958;2022-11-20T15:21:18;95614.25;;;8.57
6498;BMP280;3282;48.358;10.958;2022-11-20T15:23:45;95612.50;;;8.45
6498;BMP280;3282;48.358;10.958;2022-11-20T15:26:12;95626.00;;;8.56
6498;BMP280;3282;48.358;10.958;2022-11-20T15:28:46;95621.66;;;8.44
6498;BMP280;3282;48.358;10.958;2022-11-20T15:31:19;95621.91;;;8.35
6498;BMP280;3282;48.358;10.958;2022-11-20T15:33:46;95610.47;;;8.11
6498;BMP280;3282;48.358;10.958;2022-11-20T15:36:13;95618.78;;;8.06
6498;BMP280;3282;48.358;10.958;2022-11-20T15:38:39;95602.06;;;7.86
6498;BMP280;3282;48.358;10.958;2022-11-20T15:41:07;95618.09;;;7.89
6498;BMP280;3282;48.358;10.958;2022-11-20T15:43:33;95613.94;;;7.92
6498;BMP280;3282;48.358;10.958;2022-11-20T15:48:44;95623.78;;;7.88
6498;BMP280;3282;48.358;10.958;2022-11-20T15:53:49;95617.22;;;8.52
6498;BMP280;3282;48.358;10.958;2022-11-20T15:56:16;95620.56;;;8.76
6498;BMP280;3282;48.358;10.958;2022-11-20T15:58:42;95614.53;;;9.06
6498;BMP280;3282;48.358;10.958;2022-11-20T16:01:14;95607.78;;;9.16
6498;BMP280;3282;48.358;10.958;2022-11-20T16:03:41;95573.09;;;8.85
6498;BMP280;3282;48.358;10.958;2022-11-20T16:06:08;95594.88;;;9.22
6498;BMP280;3282;48.358;10.958;2022-11-20T16:08:35;95606.97;;;9.46
6498;BMP280;3282;48.358;10.958;2022-11-20T16:11:01;95601.88;;;9.68
6498;BMP280;3282;48.358;10.958;2022-11-20T16:13:30;95542.63;;;9.55
6498;BMP280;3282;48.358;10.958;2022-11-20T16:16:21;95594.19;;;10.01
6498;BMP280;3282;48.358;10.958;2022-11-20T16:18:49;95544.38;;;9.78
6498;BMP280;3282;48.358;10.958;2022-11-20T16:21:16;95579.00;;;10.12
6498;BMP280;3282;48.358;10.958;2022-11-20T16:23:43;95578.72;;;10.25
6498;BMP280;3282;48.358;10.958;2022-11-20T16:26:15;95567.31;;;10.35
6498;BMP280;3282;48.358;10.958;2022-11-20T16:28:43;95578.50;;;10.52
6498;BMP280;3282;48.358;10.958;2022-11-20T16:31:15;95583.16;;;10.66
6498;BMP280;3282;48.358;10.958;2022-11-20T16:33:42;95583.97;;;10.74
6498;BMP280;3282;48.358;10.958;2022-11-20T16:36:14;95587.47;;;10.85
6498;BMP280;3282;48.358;10.958;2022-11-20T16:38:41;95591.00;;;10.97
6498;BMP280;3282;48.358;10.958;2022-11-20T16:41:08;95579.13;;;10.98
6498;BMP280;3282;48.358;10.958;2022-11-20T16:43:48;95584.50;;;11.01
6498;BMP280;3282;48.358;10.958;2022-11-20T16:46:16;95579.16;;;11.05
6498;BMP280;3282;48.358;10.958;2022-11-20T16:48:43;95580.66;;;11.06
6498;BMP280;3282;48.358;10.958;2022-11-20T16:51:11;95575.69;;;11.01
6498;BMP280;3282;48.358;10.958;2022-11-20T16:53:38;95576.88;;;11.03
6498;BMP280;3282;48.358;10.958;2022-11-20T16:56:13;95576.50;;;11.08
6498;BMP280;3282;48.358;10.958;2022-11-20T16:58:43;95562.34;;;11.04
6498;BMP280;3282;48.358;10.958;2022-11-20T17:01:12;95562.72;;;11.03
6498;BMP280;3282;48.358;10.958;2022-11-20T17:03:40;95563.06;;;10.94
6498;BMP280;3282;48.358;10.958;2022-11-20T17:06:14;95560.31;;;10.83
6498;BMP280;3282;48.358;10.958;2022-11-20T17:08:41;95561.81;;;10.77
6498;BMP280;3282;48.358;10.958;2022-11-20T17:11:10;95534.97;;;10.58
6498;BMP280;3282;48.358;10.958;2022-11-20T17:13:37;95551.06;;;10.66
6498;BMP280;3282;48.358;10.958;2022-11-20T17:16:10;95529.56;;;10.44